createdAt,value
2023-04-18T00:00:17.484Z,86.9858
2023-04-18T00:01:18.111Z,86.8908
2023-04-18T00:02:19.067Z,87.0282
2023-04-18T00:03:19.312Z,86.4415
2023-04-18T00:04:21.362Z,86.7257
2023-04-18T00:05:22.206Z,86.9312
2023-04-18T00:06:23.030Z,86.7581
2023-04-18T00:07:23.928Z,86.7324
2023-04-18T00:08:24.270Z,86.5477
2023-04-18T00:09:25.142Z,86.3342
2023-04-18T00:10:25.793Z,86.0013
2023-04-18T00:11:26.466Z,85.3581
2023-04-18T00:12:27.043Z,85.7589
2023-04-18T00:13:27.632Z,86.2611
2023-04-18T00:14:27.666Z,85.9567
2023-04-18T00:15:28.487Z,86.1818
2023-04-18T00:16:29.165Z,85.8296
2023-04-18T00:17:30.044Z,86.0656
2023-04-18T00:18:30.556Z,86.0441
2023-04-18T00:19:31.077Z,86.1916
2023-04-18T00:20:31.643Z,85.8609
2023-04-18T00:21:32.175Z,86.2908
2023-04-18T00:22:32.802Z,85.6636
2023-04-18T00:23:33.779Z,85.5655
2023-04-18T00:24:34.800Z,85.5942
2023-04-18T00:25:35.404Z,85.3110
2023-04-18T00:26:36.041Z,85.7291
2023-04-18T00:27:36.436Z,85.9111
2023-04-18T00:28:37.133Z,86.0639
2023-04-18T00:29:37.516Z,86.0750
2023-04-18T00:30:38.121Z,85.6120
2023-04-18T00:31:39.318Z,85.1916
2023-04-18T00:32:39.911Z,85.2357
2023-04-18T00:33:40.637Z,85.4656
2023-04-18T00:34:41.214Z,85.5093
2023-04-18T00:35:41.699Z,85.6187
2023-04-18T00:36:42.260Z,85.5701
2023-04-18T00:37:42.753Z,85.5938
2023-04-18T00:38:43.298Z,85.4548
2023-04-18T00:39:43.814Z,85.3629
2023-04-18T00:40:44.198Z,85.2188
2023-04-18T00:41:44.807Z,85.7055
2023-04-18T00:42:45.378Z,85.4619
2023-04-18T00:43:45.794Z,85.4511
2023-04-18T00:44:46.828Z,85.1425
2023-04-18T00:45:47.215Z,85.4429
2023-04-18T00:46:48.415Z,85.3049
2023-04-18T00:47:49.289Z,85.3354
2023-04-18T00:48:49.996Z,85.4905
2023-04-18T00:49:50.881Z,85.4063
2023-04-18T00:50:51.549Z,85.8691
2023-04-18T00:51:52.029Z,85.8971
2023-04-18T00:52:52.636Z,85.7656
2023-04-18T00:53:53.106Z,85.8808
2023-04-18T00:54:54.227Z,85.9687
2023-04-18T00:55:54.856Z,86.0637
2023-04-18T00:56:55.330Z,85.7290
2023-04-18T00:57:55.883Z,85.9891
2023-04-18T00:58:56.453Z,85.6946
2023-04-18T00:59:56.843Z,85.5129
2023-04-18T01:00:57.435Z,85.4930
2023-04-18T01:01:58.110Z,85.5384
2023-04-18T01:02:58.362Z,85.8983
2023-04-18T01:03:58.449Z,85.9305
2023-04-18T01:04:59.164Z,85.9407
2023-04-18T01:05:59.850Z,86.0666
2023-04-18T01:07:00.416Z,85.8113
2023-04-18T01:08:00.987Z,85.9569
2023-04-18T01:09:01.727Z,85.7360
2023-04-18T01:10:02.471Z,85.3946
2023-04-18T01:11:02.850Z,84.9983
2023-04-18T01:12:03.424Z,85.1588
2023-04-18T01:13:03.849Z,85.6437
2023-04-18T01:14:04.354Z,85.8019
2023-04-18T01:15:04.885Z,85.9859
2023-04-18T01:16:05.503Z,85.3886
2023-04-18T01:17:06.685Z,85.2623
2023-04-18T01:18:07.452Z,85.5903
2023-04-18T01:19:07.907Z,85.9614
2023-04-18T01:20:08.566Z,85.7534
2023-04-18T01:21:09.306Z,85.6341
2023-04-18T01:22:09.901Z,85.4764
2023-04-18T01:23:10.461Z,85.4668
2023-04-18T01:24:11.154Z,85.4649
2023-04-18T01:25:11.537Z,85.6268
2023-04-18T01:26:12.217Z,85.7195
2023-04-18T01:27:12.798Z,85.4474
2023-04-18T01:28:13.393Z,85.3590
2023-04-18T01:29:13.762Z,85.6985
2023-04-18T01:30:14.823Z,85.9281
2023-04-18T01:31:15.498Z,85.9477
2023-04-18T01:32:16.102Z,85.8191
2023-04-18T01:33:17.039Z,85.7673
2023-04-18T01:34:17.785Z,85.9365
2023-04-18T01:35:18.297Z,86.2749
2023-04-18T01:36:18.853Z,86.5135
2023-04-18T01:37:19.263Z,85.9171
2023-04-18T01:38:19.751Z,85.6731
2023-04-18T01:39:20.452Z,85.7387
2023-04-18T01:40:20.876Z,85.5845
2023-04-18T01:41:21.477Z,86.0428
2023-04-18T01:42:22.411Z,85.8991
2023-04-18T01:43:22.849Z,85.7196
2023-04-18T01:44:23.448Z,85.8083
2023-04-18T01:45:23.894Z,86.2874
2023-04-18T01:46:24.678Z,85.4297
2023-04-18T01:47:25.704Z,85.4511
2023-04-18T01:48:26.235Z,85.9138
2023-04-18T01:49:26.869Z,86.1618
2023-04-18T01:50:27.439Z,85.4272
2023-04-18T01:51:27.864Z,85.9474
2023-04-18T01:52:28.612Z,86.0875
2023-04-18T01:53:28.941Z,86.3764
2023-04-18T01:54:29.963Z,86.3781
2023-04-18T01:55:30.510Z,86.1604
2023-04-18T01:56:30.941Z,86.3815
2023-04-18T01:57:31.684Z,86.3676
2023-04-18T01:58:32.328Z,86.0783
2023-04-18T01:59:32.645Z,86.2907
2023-04-18T02:00:33.259Z,86.1977
2023-04-18T02:01:33.913Z,85.7237
2023-04-18T02:02:35.033Z,86.3456
2023-04-18T02:03:35.583Z,86.5101
2023-04-18T02:04:35.452Z,86.5078
2023-04-18T02:05:36.002Z,86.4894
2023-04-18T02:06:36.559Z,86.4157
2023-04-18T02:07:37.117Z,86.7100
2023-04-18T02:08:37.766Z,86.8606
2023-04-18T02:09:38.195Z,87.0785
2023-04-18T02:10:38.698Z,86.8225
2023-04-18T02:11:39.333Z,86.8671
2023-04-18T02:12:39.748Z,87.0039
2023-04-18T02:13:40.315Z,86.9682
2023-04-18T02:14:40.862Z,87.0415
2023-04-18T02:15:41.204Z,86.9905
2023-04-18T02:16:42.132Z,87.0585
2023-04-18T02:17:42.829Z,87.0544
2023-04-18T02:18:43.539Z,86.9172
2023-04-18T02:19:44.177Z,86.7956
2023-04-18T02:20:44.785Z,86.6610
2023-04-18T02:21:45.335Z,86.6652
2023-04-18T02:22:45.904Z,86.5548
2023-04-18T02:23:46.409Z,86.9268
2023-04-18T02:24:47.230Z,86.8057
2023-04-18T02:25:47.730Z,86.7085
2023-04-18T02:26:48.484Z,87.0911
2023-04-18T02:27:49.214Z,87.1957
2023-04-18T02:28:49.989Z,87.1953
2023-04-18T02:29:50.637Z,87.2175
2023-04-18T02:30:51.590Z,86.9428
2023-04-18T02:31:52.278Z,86.7035
2023-04-18T02:32:53.465Z,86.9599
2023-04-18T02:33:53.957Z,87.2145
2023-04-18T02:34:54.756Z,86.9694
2023-04-18T02:35:55.358Z,86.9182
2023-04-18T02:36:55.815Z,87.1056
2023-04-18T02:37:56.433Z,86.7466
2023-04-18T02:38:56.981Z,86.6692
2023-04-18T02:39:57.377Z,86.5727
2023-04-18T02:40:58.040Z,86.5930
2023-04-18T02:41:58.415Z,86.7846
2023-04-18T02:42:58.990Z,86.8773
2023-04-18T02:43:59.633Z,87.1608
2023-04-18T02:45:00.117Z,87.2266
2023-04-18T02:46:00.873Z,87.4325
2023-04-18T02:47:01.689Z,87.3457
2023-04-18T02:48:02.679Z,87.0180
2023-04-18T02:49:03.556Z,86.8342
2023-04-18T02:50:04.155Z,87.0300
2023-04-18T02:51:04.679Z,87.3038
2023-04-18T02:52:05.301Z,87.4869
2023-04-18T02:53:05.736Z,87.3171
2023-04-18T02:54:06.288Z,87.4108
2023-04-18T02:55:06.897Z,87.7286
2023-04-18T02:56:07.414Z,87.6970
2023-04-18T02:57:08.134Z,87.2488
2023-04-18T02:58:08.744Z,87.2086
2023-04-18T02:59:09.283Z,86.9246
2023-04-18T03:00:09.883Z,87.2177
2023-04-18T03:01:10.381Z,87.1870
2023-04-18T03:02:11.336Z,87.4641
2023-04-18T03:03:11.368Z,87.2440
2023-04-18T03:04:12.325Z,87.1340
2023-04-18T03:05:12.705Z,87.1037
2023-04-18T03:06:13.388Z,87.0953
2023-04-18T03:07:13.766Z,87.1242
2023-04-18T03:08:14.560Z,87.3005
2023-04-18T03:09:14.939Z,87.2671
2023-04-18T03:10:15.542Z,87.4436
2023-04-18T03:11:16.087Z,87.0934
2023-04-18T03:12:16.522Z,87.0997
2023-04-18T03:13:17.108Z,87.4121
2023-04-18T03:14:17.736Z,87.4066
2023-04-18T03:15:18.122Z,86.9604
2023-04-18T03:16:18.986Z,87.2386
2023-04-18T03:17:19.744Z,87.3206
2023-04-18T03:18:20.321Z,87.3162
2023-04-18T03:19:21.059Z,87.1197
2023-04-18T03:20:21.547Z,86.8633
2023-04-18T03:21:22.144Z,87.0464
2023-04-18T03:22:22.813Z,87.1941
2023-04-18T03:23:23.314Z,87.1843
2023-04-18T03:24:23.819Z,87.2443
2023-04-18T03:25:24.183Z,87.3091
2023-04-18T03:26:24.710Z,87.5469
2023-04-18T03:27:25.258Z,87.6159
2023-04-18T03:28:25.776Z,87.6261
2023-04-18T03:29:26.409Z,87.2823
2023-04-18T03:30:27.074Z,87.6096
2023-04-18T03:31:27.767Z,87.6705
2023-04-18T03:32:28.658Z,87.5699
2023-04-18T03:33:29.309Z,87.4191
2023-04-18T03:34:29.751Z,87.5057
2023-04-18T03:35:30.430Z,86.9936
2023-04-18T03:36:30.987Z,87.3054
2023-04-18T03:37:31.523Z,87.0962
2023-04-18T03:38:32.107Z,87.1305
2023-04-18T03:39:32.545Z,87.1672
2023-04-18T03:40:33.141Z,87.3976
2023-04-18T03:41:33.682Z,87.5269
2023-04-18T03:42:34.336Z,87.6939
2023-04-18T03:43:34.991Z,87.7487
2023-04-18T03:44:36.245Z,87.7158
2023-04-18T03:45:36.825Z,87.6967
2023-04-18T03:46:38.085Z,87.5962
2023-04-18T03:47:38.997Z,87.6960
2023-04-18T03:48:40.396Z,87.3370
2023-04-18T03:50:40.259Z,87.6537
2023-04-18T03:51:40.971Z,87.6333
2023-04-18T03:52:41.371Z,86.9697
2023-04-18T03:53:41.734Z,87.3232
2023-04-18T03:54:42.886Z,87.3456
2023-04-18T03:55:43.294Z,87.5528
2023-04-18T03:56:43.978Z,87.2834
2023-04-18T03:57:44.478Z,87.1150
2023-04-18T03:58:44.906Z,86.9141
2023-04-18T03:59:47.321Z,87.4228
2023-04-18T04:00:45.772Z,87.3146
2023-04-18T04:01:46.290Z,87.1224
2023-04-18T04:02:46.812Z,87.1710
2023-04-18T04:03:47.443Z,87.2096
2023-04-18T04:04:47.505Z,86.8929
2023-04-18T04:05:48.245Z,87.2506
2023-04-18T04:06:48.945Z,87.2281
2023-04-18T04:07:49.589Z,86.8773
2023-04-18T04:08:50.145Z,87.0143
2023-04-18T04:09:50.761Z,86.7994
2023-04-18T04:10:51.184Z,86.6432
2023-04-18T04:11:51.674Z,87.1603
2023-04-18T04:12:52.282Z,86.8766
2023-04-18T04:13:52.720Z,86.6912
2023-04-18T04:14:53.930Z,86.8608
2023-04-18T04:15:54.487Z,86.6728
2023-04-18T04:16:55.307Z,86.7336
2023-04-18T04:17:56.187Z,87.1126
2023-04-18T04:18:56.949Z,86.9427
2023-04-18T04:19:57.359Z,87.1342
2023-04-18T04:20:57.939Z,87.2463
2023-04-18T04:21:58.346Z,87.2233
2023-04-18T04:22:58.948Z,87.2139
2023-04-18T04:23:59.588Z,87.3511
2023-04-18T04:25:00.304Z,87.4042
2023-04-18T04:26:00.912Z,87.3191
2023-04-18T04:27:01.557Z,87.4053
2023-04-18T04:28:02.532Z,87.2695
2023-04-18T04:29:03.201Z,87.6720
2023-04-18T04:30:03.931Z,87.2250
2023-04-18T04:31:05.025Z,87.4001
2023-04-18T04:32:05.159Z,87.4505
2023-04-18T04:33:06.129Z,87.4079
2023-04-18T04:36:07.374Z,87.2523
2023-04-18T04:37:08.144Z,87.4693
2023-04-18T04:38:08.718Z,87.2090
2023-04-18T04:39:09.454Z,87.4185
2023-04-18T04:40:10.669Z,87.5820
2023-04-18T04:41:11.593Z,87.6767
2023-04-18T04:42:12.804Z,87.5437
2023-04-18T04:43:13.888Z,87.2544
2023-04-18T04:44:14.851Z,87.2736
2023-04-18T04:45:15.429Z,87.4905
2023-04-18T04:46:16.210Z,87.4128
2023-04-18T04:47:16.801Z,87.3588
2023-04-18T04:48:17.034Z,87.3516
2023-04-18T04:49:17.935Z,87.6215
2023-04-18T04:50:18.869Z,87.6857
2023-04-18T04:51:19.674Z,87.7106
2023-04-18T04:52:20.373Z,87.6587
2023-04-18T04:53:21.000Z,87.5948
2023-04-18T04:54:21.519Z,87.5470
2023-04-18T04:55:21.985Z,87.6205
2023-04-18T04:56:22.932Z,87.2765
2023-04-18T04:57:23.615Z,87.2923
2023-04-18T04:58:24.155Z,87.0814
2023-04-18T04:59:24.792Z,87.0422
2023-04-18T05:00:25.606Z,87.0523
2023-04-18T05:01:26.423Z,87.4187
2023-04-18T05:02:26.857Z,87.1593
2023-04-18T05:03:28.747Z,86.9587
2023-04-18T05:04:29.097Z,86.9540
2023-04-18T05:05:30.202Z,87.2019
2023-04-18T05:06:30.846Z,87.2362
2023-04-18T05:07:31.836Z,87.0720
2023-04-18T05:08:32.683Z,87.4782
2023-04-18T05:09:33.267Z,87.5843
2023-04-18T05:10:33.901Z,87.6195
2023-04-18T05:11:34.585Z,87.5155
2023-04-18T05:12:35.184Z,87.5114
2023-04-18T05:13:36.160Z,87.5305
2023-04-18T05:14:36.553Z,87.8691
2023-04-18T05:15:37.463Z,87.6387
2023-04-18T05:16:37.709Z,87.7269
2023-04-18T05:17:38.745Z,87.7817
2023-04-18T05:18:39.478Z,87.6433
2023-04-18T05:19:40.340Z,87.6461
2023-04-18T05:20:41.013Z,87.8683
2023-04-18T05:21:41.731Z,87.6695
2023-04-18T05:22:43.033Z,87.7400
2023-04-18T05:23:42.859Z,87.5252
2023-04-18T05:24:43.056Z,87.5965
2023-04-18T05:25:43.713Z,87.3081
2023-04-18T05:26:44.697Z,87.4473
2023-04-18T05:27:45.946Z,87.5112
2023-04-18T05:28:46.802Z,87.5876
2023-04-18T05:29:47.579Z,87.1874
2023-04-18T05:30:48.912Z,87.2473
2023-04-18T05:31:49.906Z,87.5540
2023-04-18T05:32:50.312Z,87.3463
2023-04-18T05:33:50.334Z,87.3443
2023-04-18T05:34:51.460Z,87.2773
2023-04-18T05:35:53.496Z,87.1837
2023-04-18T05:36:53.668Z,87.4640
2023-04-18T05:37:54.476Z,87.3172
2023-04-18T05:38:55.371Z,87.1819
2023-04-18T05:39:55.938Z,86.9265
2023-04-18T05:40:56.290Z,87.0181
2023-04-18T05:41:56.724Z,86.9140
2023-04-18T05:42:57.911Z,87.0543
2023-04-18T05:44:05.261Z,87.1611
2023-04-18T05:45:02.438Z,87.4607
2023-04-18T05:48:04.054Z,87.1548
2023-04-18T05:49:04.813Z,87.3550
2023-04-18T05:50:05.567Z,87.6104
2023-04-18T05:51:06.487Z,87.3347
2023-04-18T05:52:07.678Z,87.1204
2023-04-18T05:53:08.531Z,87.2376
2023-04-18T05:54:09.151Z,87.1172
2023-04-18T05:55:09.147Z,86.9726
2023-04-18T05:56:09.647Z,87.0239
2023-04-18T05:57:10.696Z,87.0650
2023-04-18T05:58:11.356Z,86.8301
2023-04-18T05:59:11.957Z,86.9438
2023-04-18T06:00:12.666Z,86.8289
2023-04-18T06:01:13.889Z,86.8458
2023-04-18T06:02:14.722Z,86.8023
2023-04-18T06:03:16.047Z,86.8205
2023-04-18T06:04:16.809Z,86.8969
2023-04-18T06:05:17.253Z,86.4360
2023-04-18T06:06:17.934Z,86.4352
2023-04-18T06:07:18.386Z,86.8937
2023-04-18T06:08:19.212Z,86.7706
2023-04-18T06:09:19.852Z,87.0594
2023-04-18T06:10:20.556Z,87.0085
2023-04-18T06:11:21.403Z,87.0001
2023-04-18T06:12:22.324Z,86.8596
2023-04-18T06:13:22.993Z,86.7623
2023-04-18T06:14:23.828Z,86.7940
2023-04-18T06:15:25.050Z,87.1240
2023-04-18T06:16:25.974Z,86.6392
2023-04-18T06:17:25.972Z,86.5464
2023-04-18T06:18:26.915Z,86.7532
2023-04-18T06:19:27.100Z,86.7888
2023-04-18T06:20:28.323Z,86.3257
2023-04-18T06:21:28.897Z,86.7331
2023-04-18T06:22:29.982Z,86.4440
2023-04-18T06:23:30.609Z,86.5499
2023-04-18T06:24:31.357Z,86.6640
2023-04-18T06:25:31.005Z,86.5220
2023-04-18T06:26:31.502Z,86.4821
2023-04-18T06:27:34.535Z,86.1120
2023-04-18T06:28:35.388Z,86.0183
2023-04-18T06:29:36.855Z,86.2040
2023-04-18T06:30:36.220Z,86.0212
2023-04-18T06:31:37.082Z,86.8020
2023-04-18T06:32:37.932Z,86.3908
2023-04-18T06:33:38.618Z,86.4237
2023-04-18T06:34:39.866Z,86.1397
2023-04-18T06:35:40.505Z,86.1272
2023-04-18T06:36:41.153Z,86.2945
2023-04-18T06:37:41.389Z,86.5140
2023-04-18T06:38:42.077Z,86.1747
2023-04-18T06:39:42.772Z,86.0339
2023-04-18T06:40:43.518Z,86.0365
2023-04-18T06:41:44.265Z,85.9868
2023-04-18T06:42:44.756Z,85.7135
2023-04-18T06:44:01.572Z,85.4373
2023-04-18T06:44:46.870Z,85.4775
2023-04-18T06:45:47.602Z,85.5195
2023-04-18T06:46:47.677Z,86.0615
2023-04-18T06:47:48.725Z,86.1920
2023-04-18T06:48:50.434Z,86.5836
2023-04-18T06:49:49.849Z,86.0033
2023-04-18T06:50:50.594Z,85.5883
2023-04-18T06:51:51.220Z,85.4734
2023-04-18T06:52:51.798Z,85.7352
2023-04-18T06:53:52.578Z,85.6609
2023-04-18T06:54:53.379Z,85.3441
2023-04-18T06:55:54.132Z,85.8313
2023-04-18T06:56:55.303Z,85.6560
2023-04-18T06:57:56.516Z,85.8491
2023-04-18T06:58:57.321Z,85.6213
2023-04-18T06:59:58.553Z,85.5726
2023-04-18T07:00:59.191Z,85.7350
2023-04-18T07:02:00.129Z,85.4541
2023-04-18T07:03:00.733Z,85.5446
2023-04-18T07:04:00.928Z,85.7029
2023-04-18T07:05:01.336Z,85.6300
2023-04-18T07:06:01.887Z,85.5876
2023-04-18T07:07:02.691Z,85.9555
2023-04-18T07:08:03.351Z,85.8404
2023-04-18T07:09:04.107Z,85.9602
2023-04-18T07:10:04.679Z,86.1557
2023-04-18T07:11:04.699Z,85.8001
2023-04-18T07:12:05.200Z,85.4402
2023-04-18T07:13:05.751Z,85.4855
2023-04-18T07:14:06.656Z,85.2982
2023-04-18T07:15:07.717Z,85.2851
2023-04-18T07:16:08.377Z,85.0666
2023-04-18T07:17:09.054Z,85.3648
2023-04-18T07:18:10.036Z,85.2120
2023-04-18T07:19:10.939Z,84.6578
2023-04-18T07:20:12.987Z,84.7749
2023-04-18T07:21:12.436Z,84.6023
2023-04-18T07:22:13.100Z,84.4341
2023-04-18T07:23:13.597Z,84.4154
2023-04-18T07:24:14.509Z,84.6769
2023-04-18T07:25:15.385Z,84.4120
2023-04-18T07:26:15.619Z,84.1984
2023-04-18T07:27:16.353Z,84.6276
2023-04-18T07:28:17.208Z,84.6054
2023-04-18T07:29:17.675Z,84.5092
2023-04-18T07:30:18.470Z,84.3006
2023-04-18T07:31:19.331Z,84.0570
2023-04-18T07:32:20.080Z,84.2127
2023-04-18T07:33:20.895Z,84.1631
2023-04-18T07:34:21.497Z,84.5128
2023-04-18T07:35:22.119Z,83.8620
2023-04-18T07:36:22.889Z,84.2417
2023-04-18T07:37:23.549Z,83.8243
2023-04-18T07:38:24.191Z,83.8159
2023-04-18T07:39:24.818Z,83.6769
2023-04-18T07:40:25.305Z,83.9750
2023-04-18T07:41:26.032Z,83.9866
2023-04-18T07:42:26.551Z,83.9154
2023-04-18T07:43:26.689Z,84.2322
2023-04-18T07:44:26.864Z,83.8671
2023-04-18T07:45:27.257Z,83.8571
2023-04-18T07:46:27.606Z,83.6730
2023-04-18T07:47:32.242Z,83.7919
2023-04-18T07:48:31.432Z,83.6961
2023-04-18T07:49:32.530Z,83.8910
2023-04-18T07:50:33.251Z,83.6571
2023-04-18T07:51:33.673Z,83.4401
2023-04-18T07:52:34.628Z,83.2103
2023-04-18T07:53:35.275Z,83.3236
2023-04-18T07:54:35.728Z,82.9655
2023-04-18T07:55:36.322Z,82.5437
2023-04-18T07:56:36.785Z,82.6905
2023-04-18T07:57:37.478Z,82.5282
2023-04-18T07:58:38.148Z,82.5828
2023-04-18T07:59:39.316Z,82.2921
2023-04-18T08:00:39.377Z,81.8756
2023-04-18T08:01:39.996Z,81.4416
2023-04-18T08:02:41.328Z,81.3373
2023-04-18T08:03:41.267Z,81.2257
2023-04-18T08:04:41.884Z,80.6445
2023-04-18T08:05:43.021Z,80.9263
2023-04-18T08:06:43.849Z,80.4785
2023-04-18T08:07:44.798Z,80.7843
2023-04-18T08:08:45.609Z,80.6052
2023-04-18T08:09:46.771Z,80.7816
2023-04-18T08:10:47.185Z,80.2820
2023-04-18T08:11:47.874Z,80.0005
2023-04-18T08:12:48.606Z,79.7761
2023-04-18T08:13:49.318Z,79.4991
2023-04-18T08:14:50.235Z,79.3074
2023-04-18T08:15:50.966Z,79.5259
2023-04-18T08:16:51.804Z,79.1411
2023-04-18T08:17:52.388Z,79.1114
2023-04-18T08:18:53.093Z,79.5997
2023-04-18T08:19:53.703Z,79.2558
2023-04-18T08:20:54.198Z,79.3360
2023-04-18T08:21:54.887Z,78.8966
2023-04-18T08:23:06.135Z,79.0344
2023-04-18T08:24:01.983Z,79.6346
2023-04-18T08:25:05.547Z,79.0007
2023-04-18T08:26:03.792Z,79.4634
2023-04-18T08:27:04.186Z,79.4853
2023-04-18T08:28:04.882Z,79.0549
2023-04-18T08:29:05.046Z,79.1319
2023-04-18T08:30:05.868Z,79.6162
2023-04-18T08:31:06.580Z,80.0483
2023-04-18T08:32:07.484Z,80.3639
2023-04-18T08:33:08.635Z,80.2232
2023-04-18T08:34:09.271Z,80.3509
2023-04-18T08:35:09.938Z,80.5419
2023-04-18T08:36:10.559Z,80.6333
2023-04-18T08:37:11.077Z,80.4735
2023-04-18T08:38:11.524Z,80.4644
2023-04-18T08:39:12.212Z,80.1833
2023-04-18T08:40:13.283Z,79.5809
2023-04-18T08:41:13.773Z,79.5568
2023-04-18T08:42:14.485Z,78.9431
2023-04-18T08:43:14.994Z,78.7891
2023-04-18T08:44:15.741Z,78.9530
2023-04-18T08:45:16.723Z,79.0249
2023-04-18T08:46:16.973Z,78.4186
2023-04-18T08:47:18.050Z,78.5130
2023-04-18T08:48:19.102Z,78.3829
2023-04-18T08:49:20.173Z,78.0585
2023-04-18T08:50:20.375Z,77.7527
2023-04-18T08:51:20.450Z,77.5082
2023-04-18T08:52:21.023Z,77.6231
2023-04-18T08:53:21.936Z,77.7561
2023-04-18T08:54:22.483Z,77.0280
2023-04-18T08:55:23.357Z,77.6343
2023-04-18T08:56:23.959Z,77.5439
2023-04-18T08:57:24.502Z,77.7932
2023-04-18T08:58:25.409Z,77.2266
2023-04-18T08:59:26.501Z,77.5908
2023-04-18T09:00:27.587Z,78.5467
2023-04-18T09:01:28.382Z,78.4644
2023-04-18T09:02:29.345Z,78.1141
2023-04-18T09:03:29.938Z,78.2882
2023-04-18T09:04:30.826Z,77.9360
2023-04-18T09:05:32.110Z,77.8075
2023-04-18T09:06:32.238Z,77.9789
2023-04-18T09:07:32.953Z,77.8795
2023-04-18T09:08:34.221Z,78.1464
2023-04-18T09:09:35.008Z,78.1600
2023-04-18T09:10:36.787Z,77.1916
2023-04-18T09:11:36.548Z,76.6959
2023-04-18T09:12:37.255Z,76.4332
2023-04-18T09:13:38.439Z,76.7672
2023-04-18T09:14:38.916Z,76.0089
2023-04-18T09:15:39.631Z,75.9767
2023-04-18T09:16:40.783Z,75.7775
2023-04-18T09:17:41.597Z,75.6057
2023-04-18T09:18:42.348Z,75.9767
2023-04-18T09:19:42.752Z,75.7893
2023-04-18T09:20:43.355Z,75.6139
2023-04-18T09:21:44.008Z,75.8010
2023-04-18T09:22:44.844Z,75.8477
2023-04-18T09:23:45.546Z,76.0922
2023-04-18T09:24:46.796Z,76.0975
2023-04-18T09:25:47.797Z,75.8249
2023-04-18T09:26:48.547Z,75.6756
2023-04-18T09:27:48.912Z,75.8748
2023-04-18T09:28:51.219Z,75.5012
2023-04-18T09:29:50.129Z,75.5594
2023-04-18T09:30:50.747Z,75.1361
2023-04-18T09:31:51.693Z,75.2093
2023-04-18T09:32:52.227Z,75.6181
2023-04-18T09:33:53.221Z,75.3101
2023-04-18T09:34:53.908Z,74.9789
2023-04-18T09:35:54.850Z,74.7985
2023-04-18T09:36:55.805Z,74.9860
2023-04-18T09:37:56.857Z,75.2153
2023-04-18T09:38:57.529Z,75.9217
2023-04-18T09:39:58.302Z,76.0237
2023-04-18T09:40:59.080Z,75.8938
2023-04-18T09:41:59.414Z,75.3058
2023-04-18T09:43:00.180Z,74.8479
2023-04-18T09:44:00.682Z,75.1452
2023-04-18T09:45:01.373Z,73.8314
2023-04-18T09:46:02.424Z,73.5687
2023-04-18T09:47:03.195Z,74.0288
2023-04-18T09:48:03.916Z,74.8396
2023-04-18T09:49:04.614Z,74.5387
2023-04-18T09:50:05.922Z,74.4915
2023-04-18T09:51:06.446Z,74.9284
2023-04-18T09:52:07.079Z,75.2639
2023-04-18T09:53:07.477Z,75.7606
2023-04-18T09:54:08.462Z,75.2481
2023-04-18T09:55:08.718Z,74.8482
2023-04-18T09:56:09.408Z,74.4311
2023-04-18T09:57:10.353Z,74.2270
2023-04-18T09:58:10.899Z,73.6864
2023-04-18T09:59:11.590Z,72.9844
2023-04-18T10:00:12.406Z,73.4528
2023-04-18T10:01:12.494Z,72.9618
2023-04-18T10:02:13.761Z,72.8606
2023-04-18T10:03:14.846Z,72.9330
2023-04-18T10:04:15.725Z,72.6994
2023-04-18T10:05:17.244Z,72.2836
2023-04-18T10:06:16.407Z,72.3590
2023-04-18T10:07:17.025Z,72.5008
2023-04-18T10:08:17.592Z,72.6307
2023-04-18T10:09:18.014Z,73.0808
2023-04-18T10:10:18.644Z,72.9076
2023-04-18T10:11:20.320Z,72.4744
2023-04-18T10:12:19.890Z,72.1492
2023-04-18T10:13:20.641Z,72.0514
2023-04-18T10:14:21.836Z,71.7623
2023-04-18T10:15:22.476Z,71.8271
2023-04-18T10:16:23.459Z,71.0414
2023-04-18T10:17:23.481Z,70.9658
2023-04-18T10:18:24.609Z,71.6735
2023-04-18T10:19:24.534Z,72.5236
2023-04-18T10:20:25.101Z,72.6128
2023-04-18T10:21:25.639Z,72.2477
2023-04-18T10:22:26.218Z,71.7562
2023-04-18T10:23:28.095Z,71.0041
2023-04-18T10:24:27.512Z,70.5092
2023-04-18T10:25:28.045Z,70.3896
2023-04-18T10:26:28.693Z,70.6219
2023-04-18T10:27:29.346Z,71.0346
2023-04-18T10:28:29.840Z,71.4712
2023-04-18T10:29:30.805Z,71.6817
2023-04-18T10:30:31.218Z,72.4881
2023-04-18T10:31:32.250Z,72.4265
2023-04-18T10:32:32.902Z,72.3653
2023-04-18T10:33:33.669Z,72.5370
2023-04-18T10:34:33.463Z,72.4049
2023-04-18T10:35:33.486Z,72.6029
2023-04-18T10:36:34.972Z,72.5182
2023-04-18T10:38:34.758Z,72.5477
2023-04-18T10:39:35.326Z,72.7722
2023-04-18T10:40:36.093Z,72.2106
2023-04-18T10:41:36.048Z,72.3279
2023-04-18T10:43:00.314Z,72.2503
2023-04-18T10:44:00.553Z,72.6875
2023-04-18T10:45:01.093Z,72.9246
2023-04-18T10:46:01.754Z,72.7179
2023-04-18T10:47:02.680Z,71.7723
2023-04-18T10:48:03.062Z,71.5267
2023-04-18T10:49:03.219Z,71.1508
2023-04-18T10:50:08.431Z,71.1610
2023-04-18T10:51:09.113Z,71.1211
2023-04-18T10:52:11.766Z,71.5841
2023-04-18T10:53:10.501Z,71.3022
2023-04-18T10:54:11.030Z,71.6410
2023-04-18T10:55:12.266Z,71.2449
2023-04-18T10:56:12.938Z,71.1254
2023-04-18T10:57:13.500Z,70.9186
2023-04-18T10:58:14.177Z,71.0193
2023-04-18T10:59:14.720Z,71.0302
2023-04-18T11:00:15.336Z,70.8555
2023-04-18T11:01:16.508Z,70.1697
2023-04-18T11:02:17.603Z,69.7304
2023-04-18T11:03:17.709Z,68.7835
2023-04-18T11:04:18.092Z,68.4850
2023-04-18T11:05:17.953Z,69.7480
2023-04-18T11:06:18.691Z,68.7999
2023-04-18T11:07:19.181Z,68.2406
2023-04-18T11:08:19.848Z,68.4532
2023-04-18T11:09:20.429Z,69.0158
2023-04-18T11:10:21.025Z,69.1890
2023-04-18T11:11:22.244Z,69.6803
2023-04-18T11:12:22.776Z,70.1618
2023-04-18T11:13:22.822Z,70.4314
2023-04-18T11:14:23.601Z,70.4049
2023-04-18T11:15:24.430Z,70.9088
2023-04-18T11:16:25.177Z,70.7048
2023-04-18T11:17:26.241Z,70.9651
2023-04-18T11:18:26.283Z,69.7168
2023-04-18T11:19:27.093Z,69.1233
2023-04-18T11:20:28.255Z,69.2547
2023-04-18T11:21:30.463Z,68.7822
2023-04-18T11:22:29.087Z,68.3265
2023-04-18T11:23:30.062Z,68.3211
2023-04-18T11:24:30.015Z,68.3158
2023-04-18T11:25:30.710Z,68.2430
2023-04-18T11:26:31.384Z,68.2101
2023-04-18T11:27:31.585Z,68.3603
2023-04-18T11:28:32.468Z,69.5246
2023-04-18T11:29:33.174Z,69.3370
2023-04-18T11:30:33.957Z,68.7766
2023-04-18T11:31:34.962Z,69.1446
2023-04-18T11:32:35.011Z,69.4541
2023-04-18T11:33:35.795Z,70.1629
2023-04-18T11:34:36.541Z,70.0954
2023-04-18T11:35:37.296Z,69.8778
2023-04-18T11:36:37.735Z,69.5589
2023-04-18T11:37:38.487Z,68.7870
2023-04-18T11:38:39.288Z,68.7281
2023-04-18T11:39:39.850Z,68.1754
2023-04-18T11:40:40.650Z,68.4139
2023-04-18T11:41:41.057Z,68.0915
2023-04-18T11:42:41.810Z,67.5226
2023-04-18T11:43:42.530Z,64.6899
2023-04-18T11:44:43.329Z,65.4782
2023-04-18T11:45:43.967Z,66.1624
2023-04-18T11:46:45.035Z,66.0952
2023-04-18T11:47:45.606Z,65.5842
2023-04-18T11:48:46.248Z,65.1758
2023-04-18T11:49:47.362Z,61.9276
2023-04-18T11:50:48.629Z,62.1754
2023-04-18T11:51:49.880Z,63.2152
2023-04-18T11:52:51.139Z,62.7617
2023-04-18T11:53:52.225Z,63.3427
2023-04-18T11:54:52.823Z,62.8556
2023-04-18T11:55:53.394Z,62.9887
2023-04-18T11:56:54.297Z,61.8611
2023-04-18T11:57:55.005Z,62.7902
2023-04-18T11:58:56.171Z,61.6158
2023-04-18T11:59:57.043Z,59.5557
2023-04-18T12:00:57.256Z,62.2352
2023-04-18T12:01:58.904Z,62.6888
2023-04-18T12:02:58.426Z,63.6632
2023-04-18T12:05:59.406Z,61.1379
2023-04-18T12:06:59.531Z,60.8887
2023-04-18T12:08:00.502Z,59.6241
2023-04-18T12:09:00.940Z,60.1385
2023-04-18T12:10:01.838Z,58.9439
2023-04-18T12:11:02.902Z,55.4669
2023-04-18T12:12:03.693Z,57.0073
2023-04-18T12:13:04.633Z,58.5121
2023-04-18T12:14:05.882Z,57.6553
2023-04-18T12:15:06.410Z,57.9898
2023-04-18T12:16:06.210Z,58.4408
2023-04-18T12:17:06.987Z,59.5288
2023-04-18T12:18:07.100Z,59.9728
2023-04-18T12:19:07.902Z,60.1455
2023-04-18T12:20:09.051Z,60.7518
2023-04-18T12:21:09.542Z,60.0279
2023-04-18T12:22:09.692Z,59.8953